createdAt,value
2022-11-07T00:00:14.721Z,68.43
2022-11-07T00:05:17.990Z,68.32
2022-11-07T00:10:21.446Z,68.27
2022-11-07T00:15:25.042Z,68.12
2022-11-07T00:20:28.488Z,68.24
2022-11-07T00:25:31.751Z,68.10
2022-11-07T00:30:35.749Z,67.96
2022-11-07T00:35:42.539Z,67.96
2022-11-07T00:40:57.877Z,68.23
2022-11-07T00:46:02.749Z,67.97
2022-11-07T00:51:10.498Z,67.95
2022-11-07T00:56:17.081Z,67.66
2022-11-07T01:01:23.132Z,67.85
2022-11-07T01:06:32.836Z,67.77
2022-11-07T01:11:38.985Z,67.66
2022-11-07T01:16:43.044Z,67.39
2022-11-07T01:21:47.211Z,67.29
2022-11-07T01:26:50.664Z,66.96
2022-11-07T01:31:54.231Z,66.92
2022-11-07T01:36:57.691Z,66.68
2022-11-07T01:42:00.827Z,66.73
2022-11-07T01:47:04.272Z,66.61
2022-11-07T01:52:07.657Z,66.62
2022-11-07T01:57:21.349Z,66.67
2022-11-07T02:02:27.687Z,66.79
2022-11-07T02:07:32.315Z,66.56
2022-11-07T02:12:35.987Z,66.65
2022-11-07T02:18:00.439Z,66.68
2022-11-07T02:23:08.787Z,66.85
2022-11-07T02:28:14.028Z,67.19
2022-11-07T02:33:19.994Z,67.09
2022-11-07T02:38:30.920Z,66.90
2022-11-07T02:43:38.195Z,66.89
2022-11-07T02:48:45.186Z,67.44
2022-11-07T02:53:48.911Z,67.25
2022-11-07T02:58:52.326Z,67.61
2022-11-07T03:03:56.691Z,67.24
2022-11-07T03:09:00.185Z,67.27
2022-11-07T03:14:03.820Z,67.02
2022-11-07T03:19:07.011Z,66.92
2022-11-07T03:24:10.238Z,66.87
2022-11-07T03:29:13.362Z,66.96
2022-11-07T03:34:16.743Z,66.85
2022-11-07T03:39:25.817Z,66.86
2022-11-07T03:44:29.729Z,67.16
2022-11-07T03:49:33.261Z,66.90
2022-11-07T03:54:36.883Z,67.00
2022-11-07T03:59:40.293Z,67.04
2022-11-07T04:04:44.107Z,67.20
2022-11-07T04:09:47.290Z,67.31
2022-11-07T04:14:50.715Z,67.05
2022-11-07T04:19:55.472Z,66.86
2022-11-07T04:24:58.993Z,66.67
2022-11-07T04:30:05.157Z,66.67
2022-11-07T04:35:08.896Z,66.86
2022-11-07T04:40:13.220Z,67.07
2022-11-07T04:45:17.393Z,66.95
2022-11-07T04:50:21.585Z,67.00
2022-11-07T04:55:27.860Z,67.09
2022-11-07T05:00:31.158Z,67.15
2022-11-07T05:05:34.613Z,66.73
2022-11-07T05:10:38.143Z,66.84
2022-11-07T05:15:41.797Z,66.57
2022-11-07T05:20:45.057Z,66.44
2022-11-07T05:25:50.225Z,66.54
2022-11-07T05:30:53.710Z,66.34
2022-11-07T05:36:08.087Z,66.31
2022-11-07T05:41:12.301Z,65.95
2022-11-07T05:46:15.667Z,65.73
2022-11-07T05:51:19.050Z,65.16
2022-11-07T05:56:22.332Z,64.80
2022-11-07T06:01:25.786Z,64.18
2022-11-07T06:06:29.302Z,63.52
2022-11-07T06:11:33.200Z,63.12
2022-11-07T06:16:36.747Z,62.54
2022-11-07T06:21:40.046Z,62.28
2022-11-07T06:26:43.760Z,62.20
2022-11-07T06:31:47.520Z,62.32
2022-11-07T06:37:02.595Z,62.21
2022-11-07T06:42:06.519Z,62.20
2022-11-07T06:47:10.110Z,61.72
2022-11-07T06:52:13.433Z,61.42
2022-11-07T06:57:16.545Z,61.47
2022-11-07T07:02:37.182Z,61.32
2022-11-07T07:07:43.050Z,60.94
2022-11-07T07:12:46.550Z,60.41
2022-11-07T07:17:50.176Z,60.18
2022-11-07T07:23:00.149Z,59.78
2022-11-07T07:28:06.325Z,59.15
2022-11-07T07:33:09.723Z,58.85
2022-11-07T07:38:13.163Z,58.58
2022-11-07T07:43:16.570Z,58.19
2022-11-07T07:48:20.593Z,57.67
2022-11-07T07:53:24.340Z,57.32
2022-11-07T07:58:28.197Z,56.85
2022-11-07T08:03:50.690Z,56.37
2022-11-07T08:08:55.770Z,56.08
2022-11-07T08:14:01.746Z,55.49
2022-11-07T08:19:05.463Z,55.12
2022-11-07T08:24:09.911Z,54.64
2022-11-07T08:29:13.748Z,54.46
2022-11-07T08:34:17.927Z,54.07
2022-11-07T08:39:20.981Z,53.58
2022-11-07T08:44:24.175Z,53.05
2022-11-07T08:49:27.654Z,52.88
2022-11-07T08:54:31.005Z,52.46
2022-11-07T08:59:34.800Z,52.35
2022-11-07T09:04:38.200Z,52.16
2022-11-07T09:09:41.661Z,51.87
2022-11-07T09:14:45.094Z,51.57
2022-11-07T09:19:48.560Z,51.39
2022-11-07T09:24:51.801Z,51.47
2022-11-07T09:29:55.619Z,51.11
2022-11-07T09:35:03.692Z,51.08
2022-11-07T09:40:53.448Z,51.18
2022-11-07T09:46:15.109Z,51.22
2022-11-07T09:51:34.618Z,51.14
2022-11-07T09:56:41.019Z,50.97
2022-11-07T10:01:44.606Z,50.83
2022-11-07T10:06:54.922Z,50.59
2022-11-07T10:12:09.208Z,50.45
2022-11-07T10:17:27.016Z,50.36
2022-11-07T10:22:48.420Z,50.45
2022-11-07T10:28:00.768Z,50.29
2022-11-07T10:33:29.944Z,50.53
2022-11-07T10:38:35.335Z,50.14
2022-11-07T10:43:41.296Z,49.93
2022-11-07T10:48:59.031Z,49.94
2022-11-07T10:54:02.765Z,49.83
2022-11-07T10:59:13.435Z,50.07
2022-11-07T11:04:33.796Z,50.17
2022-11-07T11:09:37.516Z,50.01
2022-11-07T11:14:41.110Z,49.73
2022-11-07T11:19:53.552Z,49.73
2022-11-07T11:25:11.645Z,49.68
2022-11-07T11:30:21.058Z,49.52
2022-11-07T11:35:48.721Z,49.62
2022-11-07T11:41:04.644Z,49.92
2022-11-07T11:46:20.610Z,49.64
2022-11-07T11:51:41.130Z,49.66
2022-11-07T11:56:51.124Z,49.62
2022-11-07T12:02:08.835Z,49.77
2022-11-07T12:07:39.859Z,50.13
2022-11-07T12:13:06.006Z,50.02
2022-11-07T12:18:45.831Z,50.39
2022-11-07T12:23:52.051Z,50.66
2022-11-07T12:29:27.465Z,51.00
2022-11-07T12:35:06.549Z,51.12
2022-11-07T12:40:10.157Z,51.16
2022-11-07T12:45:22.707Z,51.33
2022-11-07T12:50:34.584Z,51.58
2022-11-07T12:55:50.679Z,51.85
2022-11-07T13:00:54.432Z,51.87
2022-11-07T13:06:21.217Z,52.02
2022-11-07T13:11:47.436Z,51.95
2022-11-07T13:17:04.078Z,52.12
2022-11-07T13:22:21.538Z,52.07
2022-11-07T13:27:33.525Z,52.07
2022-11-07T13:32:41.190Z,51.96
2022-11-07T13:37:45.147Z,52.56
2022-11-07T13:42:54.026Z,52.56
2022-11-07T13:48:03.057Z,52.76
2022-11-07T13:53:24.940Z,52.91
2022-11-07T13:58:30.223Z,53.34
2022-11-07T14:03:33.492Z,53.67
2022-11-07T14:13:42.095Z,53.93
2022-11-07T14:19:22.523Z,54.00
2022-11-07T14:24:27.199Z,54.35
2022-11-07T14:29:31.185Z,54.72
2022-11-07T14:34:36.301Z,54.66
2022-11-07T14:39:39.521Z,54.78
2022-11-07T14:44:54.358Z,55.09
2022-11-07T14:50:01.496Z,55.18
2022-11-07T14:55:28.014Z,55.28
2022-11-07T15:00:33.898Z,55.67
2022-11-07T15:05:39.549Z,55.60
2022-11-07T15:10:47.375Z,55.85
2022-11-07T15:16:06.345Z,55.82
2022-11-07T15:21:35.037Z,55.69
2022-11-07T15:26:38.598Z,56.06
2022-11-07T15:31:49.087Z,56.21
2022-11-07T15:36:55.029Z,56.55
2022-11-07T15:41:58.283Z,56.52
2022-11-07T15:47:02.453Z,56.72
2022-11-07T15:52:05.938Z,56.98
2022-11-07T15:57:11.652Z,56.73
2022-11-07T16:02:18.566Z,57.20
2022-11-07T16:07:22.636Z,56.97
2022-11-07T16:12:26.093Z,57.08
2022-11-07T16:17:29.727Z,57.52
2022-11-07T16:22:33.178Z,57.55
2022-11-07T16:27:37.424Z,57.38
2022-11-07T16:32:40.881Z,57.68
2022-11-07T16:37:44.401Z,57.62
2022-11-07T16:42:48.399Z,57.85
2022-11-07T16:47:52.037Z,57.86
2022-11-07T16:52:55.373Z,57.82
2022-11-07T16:57:58.692Z,57.70
2022-11-07T17:03:02.211Z,57.66
2022-11-07T17:08:19.837Z,57.78
2022-11-07T17:13:23.208Z,57.77
2022-11-07T17:18:27.729Z,57.75
2022-11-07T17:23:30.987Z,57.73
2022-11-07T17:28:33.897Z,57.61
2022-11-07T17:33:37.332Z,57.49
2022-11-07T17:38:40.627Z,57.65
2022-11-07T17:43:45.110Z,57.57
2022-11-07T17:48:48.966Z,57.39
2022-11-07T17:53:52.863Z,57.49
2022-11-07T17:59:04.717Z,57.30
2022-11-07T18:04:11.746Z,57.07
2022-11-07T18:09:18.780Z,57.22
2022-11-07T18:14:22.039Z,57.30
2022-11-07T18:19:25.517Z,57.27
2022-11-07T18:24:28.925Z,57.20
2022-11-07T18:29:32.244Z,57.51
2022-11-07T18:34:35.403Z,57.59
2022-11-07T18:39:38.865Z,57.69
2022-11-07T18:44:42.571Z,57.66
2022-11-07T18:49:46.089Z,58.91
2022-11-07T18:54:49.593Z,60.60
2022-11-07T18:59:52.943Z,61.67
2022-11-07T19:04:55.855Z,60.81
2022-11-07T19:09:58.745Z,60.57
2022-11-07T19:15:02.869Z,61.14
2022-11-07T19:20:07.442Z,61.66
2022-11-07T19:25:11.072Z,61.84
2022-11-07T19:30:15.940Z,61.97
2022-11-07T19:35:19.412Z,62.16
2022-11-07T19:40:23.098Z,61.92
2022-11-07T19:45:27.014Z,62.39
2022-11-07T19:50:30.614Z,62.53
2022-11-07T19:55:37.064Z,62.80
2022-11-07T20:00:40.331Z,63.04
2022-11-07T20:05:43.570Z,63.00
2022-11-07T20:10:47.773Z,63.93
2022-11-07T20:15:51.110Z,64.56
2022-11-07T20:20:59.925Z,64.04
2022-11-07T20:26:11.868Z,64.69
2022-11-07T20:31:18.315Z,65.17
2022-11-07T20:36:22.785Z,65.42
2022-11-07T20:41:26.438Z,65.73
2022-11-07T20:46:31.455Z,65.81
2022-11-07T20:51:35.039Z,66.00
2022-11-07T20:56:38.931Z,65.96
2022-11-07T21:01:42.922Z,66.83
2022-11-07T21:06:46.285Z,67.49
2022-11-07T21:11:49.835Z,67.15
2022-11-07T21:16:52.995Z,67.38
2022-11-07T21:21:56.214Z,67.18
2022-11-07T21:26:59.348Z,67.36
2022-11-07T21:32:02.429Z,66.94
2022-11-07T21:37:07.584Z,66.91
2022-11-07T21:42:11.009Z,67.08
2022-11-07T21:47:14.614Z,67.55
2022-11-07T21:52:18.382Z,68.62
2022-11-07T21:57:23.359Z,69.71
2022-11-07T22:03:04.176Z,70.05
2022-11-07T22:08:26.187Z,70.69
2022-11-07T22:13:32.334Z,70.91
2022-11-07T22:18:36.957Z,71.31
2022-11-07T22:23:41.083Z,71.56
2022-11-07T22:28:46.301Z,71.91
2022-11-07T22:33:51.051Z,71.97
2022-11-07T22:38:55.837Z,72.11
2022-11-07T22:43:59.879Z,72.03
2022-11-07T22:49:03.801Z,73.21
2022-11-07T22:54:11.314Z,74.02
2022-11-07T22:59:15.169Z,74.39
2022-11-07T23:04:18.971Z,74.36
2022-11-07T23:09:21.884Z,74.20
2022-11-07T23:14:25.026Z,74.59
2022-11-07T23:19:34.834Z,74.69
2022-11-07T23:24:38.473Z,75.24
2022-11-07T23:29:42.279Z,75.18
2022-11-07T23:34:45.784Z,75.32
2022-11-07T23:39:49.057Z,75.71
2022-11-07T23:44:52.307Z,76.31
2022-11-07T23:49:55.690Z,76.32
2022-11-07T23:54:59.027Z,76.17
